createdAt,value
2022-08-09T00:00:07.283Z,98764.78
2022-08-09T00:02:42.762Z,98813.59
2022-08-09T00:06:18.348Z,98812.88
2022-08-09T00:08:01.493Z,98797.72
2022-08-09T00:10:28.246Z,98734.63
2022-08-09T00:12:54.715Z,98783.03
2022-08-09T00:15:26.219Z,98794.47
2022-08-09T00:18:06.116Z,98804.47
2022-08-09T00:20:41.414Z,98790.88
2022-08-09T00:23:55.133Z,98798.34
2022-08-09T00:25:56.190Z,98794.03
2022-08-09T00:28:23.452Z,98792.47
2022-08-09T00:30:54.179Z,98797.13
2022-08-09T00:33:20.654Z,98793.13
2022-08-09T00:36:07.521Z,98794.66
2022-08-09T00:38:35.210Z,98792.66
2022-08-09T00:41:03.303Z,98771.06
2022-08-09T00:44:14.738Z,98791.78
2022-08-09T00:46:45.307Z,98793.59
2022-08-09T00:49:10.996Z,98791.97
2022-08-09T00:51:54.616Z,98786.34
2022-08-09T00:54:35.159Z,98794.50
2022-08-09T00:57:10.671Z,98792.47
2022-08-09T00:59:45.989Z,98791.28
2022-08-09T01:02:20.869Z,98791.19
2022-08-09T01:05:21.895Z,98784.66
2022-08-09T01:08:03.981Z,98798.56
2022-08-09T01:11:03.672Z,98788.50
2022-08-09T01:14:20.422Z,98788.50
2022-08-09T01:16:51.686Z,98734.22
2022-08-09T01:19:42.447Z,98788.25
2022-08-09T01:22:48.227Z,98790.50
2022-08-09T01:25:49.006Z,98787.25
2022-08-09T01:28:21.319Z,98794.91
2022-08-09T01:30:53.263Z,98779.00
2022-08-09T01:33:25.746Z,98783.63
2022-08-09T01:36:09.080Z,98750.81
2022-08-09T01:38:40.019Z,98789.22
2022-08-09T01:41:14.545Z,98789.09
2022-08-09T01:43:51.553Z,98786.03
2022-08-09T01:46:24.672Z,98782.91
2022-08-09T01:48:55.555Z,98802.53
2022-08-09T01:51:26.115Z,98796.25
2022-08-09T01:53:58.135Z,98795.44
2022-08-09T01:56:27.177Z,98794.16
2022-08-09T01:59:18.582Z,98794.16
2022-08-09T02:01:59.142Z,98791.59
2022-08-09T02:08:59.140Z,98797.41
2022-08-09T02:11:40.318Z,98798.59
2022-08-09T02:14:14.936Z,98803.72
2022-08-09T02:16:59.740Z,98808.03
2022-08-09T02:19:38.559Z,98808.75
2022-08-09T02:22:27.338Z,98814.47
2022-08-09T02:25:04.069Z,98814.13
2022-08-09T02:27:57.280Z,98826.25
2022-08-09T02:30:23.700Z,98795.06
2022-08-09T02:32:54.999Z,98820.75
2022-08-09T02:36:01.108Z,98820.63
2022-08-09T02:38:21.866Z,98824.00
2022-08-09T02:41:01.868Z,98823.88
2022-08-09T02:43:53.982Z,98825.50
2022-08-09T02:46:19.259Z,98835.56
2022-08-09T02:48:47.546Z,98831.78
2022-08-09T02:51:20.965Z,98824.53
2022-08-09T02:54:00.373Z,98823.09
2022-08-09T02:56:30.310Z,98756.72
2022-08-09T02:58:57.890Z,98821.16
2022-08-09T03:01:29.171Z,98808.34
2022-08-09T03:04:19.402Z,98820.13
2022-08-09T03:06:48.939Z,98812.88
2022-08-09T03:09:17.491Z,98814.59
2022-08-09T03:12:05.372Z,98822.19
2022-08-09T03:14:32.048Z,98808.66
2022-08-09T03:17:01.785Z,98802.09
2022-08-09T03:19:58.884Z,98804.31
2022-08-09T03:22:25.579Z,98814.91
2022-08-09T03:25:06.315Z,98815.06
2022-08-09T03:27:50.951Z,98804.31
2022-08-09T03:30:29.556Z,98791.94
2022-08-09T03:33:05.671Z,98793.59
2022-08-09T03:36:12.614Z,98815.59
2022-08-09T03:38:31.363Z,98810.13
2022-08-09T03:40:58.066Z,98811.81
2022-08-09T03:43:25.050Z,98816.56
2022-08-09T03:46:04.858Z,98803.28
2022-08-09T03:48:51.393Z,98760.47
2022-08-09T03:51:54.082Z,98794.03
2022-08-09T03:54:10.981Z,98823.53
2022-08-09T03:56:41.858Z,98826.16
2022-08-09T03:59:20.784Z,98836.63
2022-08-09T04:01:55.871Z,98830.34
2022-08-09T04:04:24.614Z,98835.59
2022-08-09T04:06:51.363Z,98815.69
2022-08-09T04:09:47.758Z,98840.59
2022-08-09T04:12:08.870Z,98842.47
2022-08-09T04:14:54.087Z,98840.59
2022-08-09T04:17:25.691Z,98833.22
2022-08-09T04:19:56.444Z,98856.28
2022-08-09T04:22:23.328Z,98856.34
2022-08-09T04:24:49.911Z,98856.34
2022-08-09T04:27:17.350Z,98853.50
2022-08-09T04:29:49.942Z,98855.59
2022-08-09T04:32:17.092Z,98861.03
2022-08-09T04:34:58.032Z,98861.69
2022-08-09T04:37:24.479Z,98855.34
2022-08-09T04:40:11.903Z,98852.91
2022-08-09T04:42:48.479Z,98855.00
2022-08-09T04:45:16.436Z,98857.69
2022-08-09T04:47:58.855Z,98868.84
2022-08-09T04:50:33.645Z,98863.63
2022-08-09T04:53:11.668Z,98868.03
2022-08-09T04:55:57.321Z,98855.75
2022-08-09T04:58:25.712Z,98841.19
2022-08-09T05:00:52.683Z,98878.34
2022-08-09T05:03:42.421Z,98871.72
2022-08-09T05:06:10.239Z,98882.69
2022-08-09T05:08:38.278Z,98886.34
2022-08-09T05:11:07.522Z,98892.34
2022-08-09T05:13:38.873Z,98889.09
2022-08-09T05:16:07.991Z,98888.25
2022-08-09T05:18:38.257Z,98891.53
2022-08-09T05:21:24.251Z,98887.03
2022-08-09T05:23:59.541Z,98893.28
2022-08-09T05:26:37.391Z,98895.03
2022-08-09T05:29:21.933Z,98894.59
2022-08-09T05:31:56.650Z,98893.13
2022-08-09T05:34:30.868Z,98886.50
2022-08-09T05:37:06.462Z,98880.34
2022-08-09T05:39:42.905Z,98878.59
2022-08-09T05:42:17.345Z,98877.59
2022-08-09T05:44:50.706Z,98890.09
2022-08-09T05:47:18.801Z,98883.66
2022-08-09T05:50:30.150Z,98886.88
2022-08-09T05:52:32.003Z,98885.50
2022-08-09T05:55:03.295Z,98884.56
2022-08-09T05:57:51.046Z,98883.19
2022-08-09T06:00:22.055Z,98884.66
2022-08-09T06:02:48.860Z,98879.03
2022-08-09T06:05:16.246Z,98882.28
2022-08-09T06:07:42.956Z,98884.06
2022-08-09T06:10:15.670Z,98880.34
2022-08-09T06:12:43.056Z,98893.63
2022-08-09T06:15:10.281Z,98892.22
2022-08-09T06:17:39.875Z,98897.78
2022-08-09T06:20:08.049Z,98900.38
2022-08-09T06:22:35.048Z,98905.38
2022-08-09T06:25:01.818Z,98907.00
2022-08-09T06:27:43.002Z,98902.28
2022-08-09T06:30:16.113Z,98910.06
2022-08-09T06:33:00.679Z,98909.88
2022-08-09T06:35:56.140Z,98915.25
2022-08-09T06:38:17.369Z,98915.69
2022-08-09T06:40:45.899Z,98906.56
2022-08-09T06:43:13.514Z,98914.28
2022-08-09T06:46:07.411Z,98910.13
2022-08-09T06:48:30.834Z,98909.41
2022-08-09T06:50:58.893Z,98918.97
2022-08-09T06:53:25.611Z,98923.56
2022-08-09T06:55:52.596Z,98910.03
2022-08-09T06:58:40.936Z,98927.03
2022-08-09T07:01:08.074Z,98920.59
2022-08-09T07:03:39.768Z,98920.34
2022-08-09T07:06:18.999Z,98926.31
2022-08-09T07:08:49.514Z,98925.41
2022-08-09T07:11:23.461Z,98922.88
2022-08-09T07:14:05.703Z,98925.06
2022-08-09T07:16:41.285Z,98932.38
2022-08-09T07:19:15.433Z,98923.31
2022-08-09T07:21:55.287Z,98925.69
2022-08-09T07:24:32.375Z,98926.00
2022-08-09T07:27:23.925Z,98928.09
2022-08-09T07:29:58.538Z,98940.13
2022-08-09T07:32:32.375Z,98933.38
2022-08-09T07:35:02.525Z,98928.81
2022-08-09T07:37:29.551Z,98934.13
2022-08-09T07:39:56.189Z,98932.16
2022-08-09T07:42:32.581Z,98903.84
2022-08-09T07:45:06.355Z,98930.03
2022-08-09T07:48:00.496Z,98924.13
2022-08-09T07:50:33.061Z,98922.47
2022-08-09T07:53:04.784Z,98923.38
2022-08-09T07:55:41.399Z,98923.69
2022-08-09T07:58:19.128Z,98922.44
2022-08-09T08:00:55.947Z,98917.09
2022-08-09T08:03:32.758Z,98925.31
2022-08-09T08:05:59.335Z,98913.06
2022-08-09T08:09:01.830Z,98927.47
2022-08-09T08:12:08.696Z,98931.78
2022-08-09T08:14:00.312Z,98933.09
2022-08-09T08:16:32.022Z,98927.41
2022-08-09T08:19:03.151Z,98928.63
2022-08-09T08:21:31.612Z,98935.34
2022-08-09T08:24:01.327Z,98933.25
2022-08-09T08:26:42.066Z,98929.09
2022-08-09T08:29:27.910Z,98935.19
2022-08-09T08:32:02.468Z,98925.69
2022-08-09T08:34:30.838Z,98940.88
2022-08-09T08:37:01.305Z,98931.69
2022-08-09T08:39:28.403Z,98925.97
2022-08-09T08:41:55.252Z,98936.41
2022-08-09T08:44:29.259Z,98928.22
2022-08-09T08:47:02.276Z,98936.00
2022-08-09T08:49:46.291Z,98936.63
2022-08-09T08:52:57.613Z,98935.63
2022-08-09T08:55:07.837Z,98939.06
2022-08-09T08:57:35.681Z,98932.44
2022-08-09T09:00:08.246Z,98927.94
2022-08-09T09:02:41.037Z,98921.38
2022-08-09T09:05:12.038Z,98928.00
2022-08-09T09:07:42.718Z,98920.38
2022-08-09T09:10:11.375Z,98923.41
2022-08-09T09:12:38.224Z,98923.94
2022-08-09T09:15:06.467Z,98934.56
2022-08-09T09:17:49.501Z,98925.16
2022-08-09T09:20:21.431Z,98936.31
2022-08-09T09:22:57.372Z,98931.22
2022-08-09T09:26:04.439Z,98926.34
2022-08-09T09:29:02.956Z,98925.03
2022-08-09T09:32:03.570Z,98905.84
2022-08-09T09:34:15.152Z,98913.94
2022-08-09T09:36:51.168Z,98915.53
2022-08-09T09:39:22.908Z,98912.03
2022-08-09T09:41:51.343Z,98907.47
2022-08-09T09:44:35.199Z,98913.31
2022-08-09T09:47:16.252Z,98910.22
2022-08-09T09:50:07.795Z,98910.75
2022-08-09T09:52:54.488Z,98903.16
2022-08-09T09:55:28.188Z,98898.88
2022-08-09T09:58:16.189Z,98911.72
2022-08-09T10:00:59.757Z,98904.25
2022-08-09T10:03:57.256Z,98906.34
2022-08-09T10:06:47.095Z,98898.81
2022-08-09T10:09:22.086Z,98903.09
2022-08-09T10:12:11.984Z,98897.44
2022-08-09T10:14:39.830Z,98906.31
2022-08-09T10:17:39.637Z,98912.78
2022-08-09T10:20:05.184Z,98910.16
2022-08-09T10:22:39.124Z,98903.84
2022-08-09T10:25:12.255Z,98899.66
2022-08-09T10:27:57.875Z,98908.94
2022-08-09T10:34:04.895Z,98897.66
2022-08-09T10:36:04.688Z,98888.59
2022-08-09T10:38:55.238Z,98882.53
2022-08-09T10:41:20.598Z,98888.25
2022-08-09T10:43:59.528Z,98897.34
2022-08-09T10:46:55.763Z,98890.03
2022-08-09T10:49:54.369Z,98883.28
2022-08-09T10:52:36.417Z,98879.22
2022-08-09T10:55:23.986Z,98863.56
2022-08-09T10:57:51.861Z,98887.78
2022-08-09T11:00:31.025Z,98886.03
2022-08-09T11:03:13.436Z,98900.41
2022-08-09T11:06:21.162Z,98893.13
2022-08-09T11:08:51.260Z,98883.63
2022-08-09T11:11:20.459Z,98896.63
2022-08-09T11:13:50.919Z,98895.16
2022-08-09T11:16:38.451Z,98893.56
2022-08-09T11:19:09.651Z,98900.38
2022-08-09T11:21:56.962Z,98891.97
2022-08-09T11:24:57.726Z,98882.75
2022-08-09T11:28:04.269Z,98897.63
2022-08-09T11:30:33.352Z,98884.38
2022-08-09T11:33:19.532Z,98874.09
2022-08-09T11:35:50.189Z,98875.06
2022-08-09T11:38:28.882Z,98876.66
2022-08-09T11:41:05.505Z,98868.78
2022-08-09T11:43:32.372Z,98877.50
2022-08-09T11:46:01.438Z,98881.66
2022-08-09T11:48:30.251Z,98878.44
2022-08-09T11:53:00.491Z,98876.66
2022-08-09T11:53:59.696Z,98874.19
2022-08-09T11:56:34.365Z,98890.84
2022-08-09T11:59:30.431Z,98862.63
2022-08-09T12:02:34.389Z,98863.41
2022-08-09T12:04:47.251Z,98864.69
2022-08-09T12:07:14.771Z,98877.44
2022-08-09T12:09:50.248Z,98856.09
2022-08-09T12:12:20.643Z,98869.22
2022-08-09T12:15:08.123Z,98871.22
2022-08-09T12:17:43.394Z,98880.00
2022-08-09T12:20:23.478Z,98868.41
2022-08-09T12:22:55.856Z,98861.56
2022-08-09T12:25:35.914Z,98867.16
2022-08-09T12:28:59.124Z,98869.22
2022-08-09T12:30:59.830Z,98866.16
2022-08-09T12:33:50.800Z,98860.56
2022-08-09T12:36:27.439Z,98855.28
2022-08-09T12:38:58.119Z,98844.50
2022-08-09T12:41:30.959Z,98835.28
2022-08-09T12:44:04.910Z,98847.66
2022-08-09T12:46:34.563Z,98836.25
2022-08-09T12:49:04.133Z,98843.03
2022-08-09T12:51:52.263Z,98833.16
2022-08-09T12:54:18.058Z,98833.91
2022-08-09T12:56:54.148Z,98838.34
2022-08-09T12:59:23.817Z,98838.59
2022-08-09T13:01:59.310Z,98827.47
2022-08-09T13:04:37.217Z,98820.81
2022-08-09T13:07:13.549Z,98822.72
2022-08-09T13:09:43.408Z,98820.47
2022-08-09T13:12:19.691Z,98811.50
2022-08-09T13:14:51.509Z,98834.00
2022-08-09T13:17:44.150Z,98820.19
2022-08-09T13:20:13.962Z,98814.72
2022-08-09T13:23:04.906Z,98821.00
2022-08-09T13:25:54.356Z,98812.25
2022-08-09T13:28:33.932Z,98821.56
2022-08-09T13:32:12.648Z,98818.53
2022-08-09T13:33:57.793Z,98811.41
2022-08-09T13:36:41.051Z,98818.97
2022-08-09T13:39:34.295Z,98806.16
2022-08-09T13:42:03.394Z,98797.94
2022-08-09T13:44:31.326Z,98802.59
2022-08-09T13:47:26.819Z,98812.09
2022-08-09T13:49:58.132Z,98813.06
2022-08-09T13:52:29.201Z,98805.38
2022-08-09T13:55:00.651Z,98770.97
2022-08-09T13:57:37.411Z,98793.38
2022-08-09T14:00:18.217Z,98784.31
2022-08-09T14:03:03.305Z,98778.78
2022-08-09T14:05:57.049Z,98782.34
2022-08-09T14:08:24.717Z,98775.28
2022-08-09T14:10:54.084Z,98790.66
2022-08-09T14:14:14.746Z,98790.81
2022-08-09T14:16:13.821Z,98800.31
2022-08-09T14:18:45.238Z,98786.75
2022-08-09T14:21:20.270Z,98782.09
2022-08-09T14:23:55.414Z,98785.53
2022-08-09T14:26:31.682Z,98785.47
2022-08-09T14:29:07.728Z,98789.56
2022-08-09T14:31:52.346Z,98783.72
2022-08-09T14:34:31.328Z,98790.03
2022-08-09T14:37:05.972Z,98778.59
2022-08-09T14:39:47.134Z,98776.28
2022-08-09T14:42:29.088Z,98773.41
2022-08-09T14:46:39.755Z,98786.59
2022-08-09T14:47:58.869Z,98781.59
2022-08-09T14:50:28.135Z,98793.47
2022-08-09T14:52:54.759Z,98775.63
2022-08-09T14:55:21.474Z,98767.75
2022-08-09T14:57:48.805Z,98791.31
2022-08-09T15:00:16.202Z,98785.53
2022-08-09T15:02:42.683Z,98783.38
2022-08-09T15:05:15.240Z,98777.78
2022-08-09T15:07:45.662Z,98777.25
2022-08-09T15:10:24.920Z,98784.19
2022-08-09T15:12:52.992Z,98774.03
2022-08-09T15:15:20.208Z,98785.03
2022-08-09T15:17:51.682Z,98790.81
2022-08-09T15:21:55.401Z,98773.09
2022-08-09T15:24:02.278Z,98770.81
2022-08-09T15:25:58.379Z,98766.63
2022-08-09T15:28:27.735Z,98765.16
2022-08-09T15:31:00.608Z,98761.94
2022-08-09T15:34:17.616Z,98760.03
2022-08-09T15:36:25.460Z,98755.53
2022-08-09T15:38:56.450Z,98767.47
2022-08-09T15:41:23.112Z,98776.66
2022-08-09T15:43:58.463Z,98767.75
2022-08-09T15:46:32.061Z,98758.88
2022-08-09T15:49:22.073Z,98770.31
2022-08-09T15:52:05.279Z,98755.66
2022-08-09T15:54:52.645Z,98764.81
2022-08-09T15:57:35.487Z,98758.41
2022-08-09T16:00:14.079Z,98756.47
2022-08-09T16:02:53.548Z,98764.72
2022-08-09T16:05:22.575Z,98765.31
2022-08-09T16:07:50.962Z,98757.59
2022-08-09T16:10:55.982Z,98768.03
2022-08-09T16:13:18.388Z,98758.22
2022-08-09T16:16:04.591Z,98767.53
2022-08-09T16:18:32.308Z,98759.63
2022-08-09T16:20:59.198Z,98760.38
2022-08-09T16:23:26.323Z,98756.41
2022-08-09T16:25:54.719Z,98755.47
2022-08-09T16:28:29.087Z,98761.75
2022-08-09T16:30:59.283Z,98760.94
2022-08-09T16:33:26.964Z,98764.19
2022-08-09T16:35:58.176Z,98751.44
2022-08-09T16:38:27.584Z,98750.00
2022-08-09T16:40:56.122Z,98746.31
2022-08-09T16:43:23.074Z,98743.28
2022-08-09T16:45:53.398Z,98747.78
2022-08-09T16:48:50.261Z,98745.31
2022-08-09T16:51:14.053Z,98759.97
2022-08-09T16:54:09.079Z,98752.38
2022-08-09T16:56:32.327Z,98747.91
2022-08-09T16:59:01.114Z,98749.84
2022-08-09T17:01:33.891Z,98742.03
2022-08-09T17:04:00.790Z,98751.28
2022-08-09T17:06:31.897Z,98745.88
2022-08-09T17:09:17.525Z,98757.16
2022-08-09T17:11:48.194Z,98746.81
2022-08-09T17:14:25.643Z,98744.91
2022-08-09T17:17:01.206Z,98745.00
2022-08-09T17:20:06.030Z,98748.72
2022-08-09T17:22:23.614Z,98757.81
2022-08-09T17:25:10.163Z,98744.81
2022-08-09T17:27:38.638Z,98749.84
2022-08-09T17:30:13.176Z,98747.72
2022-08-09T17:32:46.427Z,98748.28
2022-08-09T17:35:13.987Z,98751.22
2022-08-09T17:38:02.497Z,98745.00
2022-08-09T17:40:30.034Z,98758.16
2022-08-09T17:42:59.532Z,98749.34
2022-08-09T17:45:37.673Z,98755.50
2022-08-09T17:48:16.330Z,98759.13
2022-08-09T17:50:55.993Z,98764.69
2022-08-09T17:53:23.859Z,98764.97
2022-08-09T17:55:55.787Z,98760.47
2022-08-09T17:58:27.148Z,98758.84
2022-08-09T18:00:56.650Z,98757.41
2022-08-09T18:03:24.467Z,98763.72
2022-08-09T18:05:53.198Z,98775.56
2022-08-09T18:08:22.246Z,98768.94
2022-08-09T18:11:01.531Z,98771.09
2022-08-09T18:13:39.115Z,98765.50
2022-08-09T18:16:17.099Z,98767.50
2022-08-09T18:18:56.280Z,98767.72
2022-08-09T18:21:24.342Z,98775.19
2022-08-09T18:24:09.633Z,98782.47
2022-08-09T18:26:45.892Z,98776.94
2022-08-09T18:30:35.484Z,98774.03
2022-08-09T18:31:59.864Z,98777.44
2022-08-09T18:34:28.897Z,98776.94
2022-08-09T18:36:55.551Z,98779.03
2022-08-09T18:39:24.117Z,98781.28
2022-08-09T18:41:52.173Z,98779.00
2022-08-09T18:44:26.275Z,98781.25
2022-08-09T18:47:06.259Z,98778.03
2022-08-09T18:49:43.204Z,98784.84
2022-08-09T18:52:11.575Z,98793.97
2022-08-09T18:54:39.328Z,98789.34
2022-08-09T18:57:16.047Z,98797.84
2022-08-09T19:04:06.305Z,98803.94
2022-08-09T19:06:36.226Z,98794.44
2022-08-09T19:09:07.189Z,98804.25
2022-08-09T19:11:35.294Z,98795.88
2022-08-09T19:14:06.168Z,98801.41
2022-08-09T19:16:36.291Z,98799.34
2022-08-09T19:19:25.147Z,98801.97
2022-08-09T19:22:05.119Z,98804.47
2022-08-09T19:24:39.527Z,98806.16
2022-08-09T19:27:21.888Z,98806.41
2022-08-09T19:30:21.556Z,98815.78
2022-08-09T19:32:35.965Z,98812.06
2022-08-09T19:35:04.571Z,98810.84
2022-08-09T19:37:41.112Z,98818.59
2022-08-09T19:40:19.316Z,98814.38
2022-08-09T19:42:47.546Z,98829.34
2022-08-09T19:45:16.913Z,98822.41
2022-08-09T19:47:44.725Z,98822.25
2022-08-09T19:50:49.194Z,98823.28
2022-08-09T19:52:59.712Z,98825.50
2022-08-09T19:56:01.879Z,98828.28
2022-08-09T19:58:18.218Z,98831.69
2022-08-09T20:00:57.666Z,98832.50
2022-08-09T20:04:11.218Z,98837.59
2022-08-09T20:06:23.453Z,98840.00
2022-08-09T20:08:52.629Z,98832.06
2022-08-09T20:11:26.247Z,98834.41
2022-08-09T20:13:53.727Z,98842.44
2022-08-09T20:16:35.160Z,98834.06
2022-08-09T20:19:49.543Z,98846.41
2022-08-09T20:21:57.046Z,98838.81
2022-08-09T20:24:31.742Z,98838.88
2022-08-09T20:27:05.593Z,98841.19
2022-08-09T20:29:39.531Z,98831.19
2022-08-09T20:32:30.049Z,98846.59
2022-08-09T20:34:54.631Z,98840.94
2022-08-09T20:37:21.508Z,98840.50
2022-08-09T20:40:15.889Z,98840.50
2022-08-09T20:42:35.902Z,98854.38
2022-08-09T20:45:58.482Z,98846.72
2022-08-09T20:47:51.908Z,98846.81
2022-08-09T20:50:48.534Z,98844.03
2022-08-09T20:53:05.274Z,98851.69
2022-08-09T20:56:02.081Z,98849.06
2022-08-09T20:58:32.394Z,98855.06
2022-08-09T21:01:13.813Z,98852.44
2022-08-09T21:04:07.986Z,98859.53
2022-08-09T21:06:35.185Z,98862.31
2022-08-09T21:09:02.627Z,98842.31
2022-08-09T21:14:16.665Z,98859.81
2022-08-09T21:16:45.648Z,98856.53
2022-08-09T21:20:19.432Z,98860.63
2022-08-09T21:21:59.390Z,98863.91
2022-08-09T21:24:28.397Z,98859.88
2022-08-09T21:26:55.713Z,98848.59
2022-08-09T21:29:22.667Z,98858.03
2022-08-09T21:31:49.837Z,98858.63
2022-08-09T21:34:21.061Z,98858.63
2022-08-09T21:36:56.581Z,98861.06
2022-08-09T21:39:27.940Z,98856.19
2022-08-09T21:42:10.379Z,98857.31
2022-08-09T21:44:37.993Z,98850.25
2022-08-09T21:47:07.793Z,98851.91
2022-08-09T21:49:42.920Z,98855.69
2022-08-09T21:52:17.438Z,98858.94
2022-08-09T21:54:49.616Z,98860.84
2022-08-09T21:57:37.448Z,98862.22
2022-08-09T22:00:25.481Z,98857.03
2022-08-09T22:02:58.945Z,98858.16
2022-08-09T22:05:37.202Z,98868.69
2022-08-09T22:08:12.923Z,98871.38
2022-08-09T22:11:05.175Z,98861.66
2022-08-09T22:13:34.914Z,98858.38
2022-08-09T22:16:04.269Z,98852.16
2022-08-09T22:18:33.015Z,98866.50
2022-08-09T22:21:00.770Z,98846.47
2022-08-09T22:23:35.469Z,98860.56
2022-08-09T22:26:34.047Z,98864.34
2022-08-09T22:29:05.287Z,98867.03
2022-08-09T22:31:50.336Z,98859.72
2022-08-09T22:34:26.463Z,98862.19
2022-08-09T22:36:55.138Z,98862.72
2022-08-09T22:39:57.829Z,98869.78
2022-08-09T22:42:20.735Z,98864.31
2022-08-09T22:44:48.285Z,98858.03
2022-08-09T22:48:10.309Z,98820.38
2022-08-09T22:50:10.167Z,98856.75
2022-08-09T22:52:39.966Z,98857.56
2022-08-09T22:55:09.184Z,98858.94
2022-08-09T22:57:59.562Z,98866.22
2022-08-09T23:00:29.258Z,98865.13
2022-08-09T23:02:56.219Z,98872.19
2022-08-09T23:05:23.104Z,98863.22
2022-08-09T23:08:22.758Z,98860.00
2022-08-09T23:10:55.684Z,98858.38
2022-08-09T23:13:22.271Z,98859.72
2022-08-09T23:16:03.315Z,98856.78
2022-08-09T23:18:30.872Z,98854.06
2022-08-09T23:20:57.448Z,98852.97
2022-08-09T23:23:23.910Z,98861.88
2022-08-09T23:25:50.367Z,98851.34
2022-08-09T23:28:16.861Z,98853.25
2022-08-09T23:30:50.915Z,98852.97
2022-08-09T23:33:18.471Z,98852.72
2022-08-09T23:36:06.193Z,98836.72
2022-08-09T23:38:31.422Z,98856.78
2022-08-09T23:40:57.908Z,98848.63
2022-08-09T23:45:51.998Z,98855.41
2022-08-09T23:48:19.495Z,98849.13
2022-08-09T23:50:46.213Z,98848.53
2022-08-09T23:53:12.777Z,98841.75
2022-08-09T23:55:41.471Z,98855.03
2022-08-09T23:58:26.061Z,98847.41
